createdAt,value
2022-11-14T00:07:24.200Z,6.83
2022-11-14T00:27:26.960Z,6.80
2022-11-14T00:47:29.432Z,6.70
2022-11-14T01:07:32.307Z,6.68
2022-11-14T01:27:34.763Z,6.79
2022-11-14T01:47:37.425Z,6.68
2022-11-14T02:07:40.205Z,6.72
2022-11-14T02:27:42.921Z,6.59
2022-11-14T03:07:55.963Z,6.07
2022-11-14T03:28:01.487Z,5.95
2022-11-14T03:48:03.935Z,5.51
2022-11-14T04:08:06.415Z,5.35
2022-11-14T04:28:08.840Z,5.17
2022-11-14T04:48:11.225Z,5.27
2022-11-14T05:08:13.790Z,5.61
2022-11-14T05:28:18.678Z,5.66
2022-11-14T05:48:21.152Z,5.69
2022-11-14T06:08:26.728Z,5.73
2022-11-14T06:28:29.569Z,5.80
2022-11-14T06:48:36.587Z,5.92
2022-11-14T07:08:39.025Z,6.23
2022-11-14T07:28:41.882Z,6.20
2022-11-14T07:48:44.335Z,6.71
2022-11-14T08:08:46.802Z,6.82
2022-11-14T08:28:49.267Z,7.33
2022-11-14T08:48:51.680Z,7.71
2022-11-14T09:08:54.209Z,8.27
2022-11-14T09:28:56.761Z,8.29
2022-11-14T09:48:59.441Z,8.96
2022-11-14T10:09:01.870Z,9.14
2022-11-14T10:29:04.306Z,9.49
2022-11-14T10:49:06.713Z,10.26
2022-11-14T11:09:28.052Z,10.54
2022-11-14T11:29:30.668Z,10.16
2022-11-14T11:49:33.069Z,10.23
2022-11-14T12:10:08.269Z,10.60
2022-11-14T12:29:58.443Z,11.43
2022-11-14T12:50:00.895Z,11.76
2022-11-14T13:10:03.474Z,11.86
2022-11-14T13:30:09.037Z,11.67
2022-11-14T13:50:11.424Z,11.06
2022-11-14T14:10:13.865Z,10.57
2022-11-14T14:30:16.613Z,9.88
2022-11-14T14:50:19.045Z,9.04
2022-11-14T16:11:08.785Z,6.41
2022-11-14T16:31:11.490Z,6.48
2022-11-14T16:51:46.232Z,6.66
2022-11-14T17:11:40.087Z,6.89
2022-11-14T18:32:34.623Z,6.92
2022-11-14T18:52:42.405Z,6.98
2022-11-14T19:12:45.133Z,6.84
2022-11-14T19:32:47.953Z,6.92
2022-11-14T19:52:50.412Z,6.57
2022-11-14T20:12:54.552Z,6.56
2022-11-14T20:32:57.030Z,6.49
2022-11-14T21:34:04.068Z,6.30
2022-11-14T21:54:07.640Z,6.15
2022-11-14T22:14:10.250Z,6.22
2022-11-14T22:34:14.330Z,6.30
2022-11-14T22:54:17.017Z,6.04
2022-11-14T23:34:36.214Z,5.96
2022-11-14T23:54:38.991Z,6.01
